Terminal Aerodrome Forecast
Issued by NWS

Home | Current Version | Previous Version | Text Only | Print | Product List | Glossary On
Versions: 1 2 3 4 5 6 7 8 9 10 11 12 13 14 15 16 17 18 19 20
000
FTUS42 KFFC 060534
TAFPDK
TAF
KPDK 060534Z 0606/0706 33009KT P6SM SCT012
     FM060630 34008KT P6SM BKN015
     FM061100 35007KT P6SM BKN025
     FM061300 01007KT P6SM SCT025
     FM061800 34003KT P6SM FEW035
     FM062000 31004KT P6SM FEW250=

USA.gov is the U.S. government's official web portal to all federal, state and local government web resources and services.